Time;durP1;ratioP1;P1;durP2;ratioP2;P2;SDS_P1;SDS_P2;PMS_P1;PMS_P2;Temp;Humidity;BMP_temperature;BMP_pressure;BME280_temperature;BME280_humidity;BME280_pressure;Samples;Min_cycle;Max_cycle;Signal;HPM_P1;HPM_P2
2023/02/12 00:02:04;;;;;;;39.83;27.43;;;10.20;99.90;;;;;;4995713;28;21298;-82
2023/02/12 00:04:30;;;;;;;46.67;27.73;;;10.30;99.90;;;;;;4994951;28;20482;-81
2023/02/12 00:06:57;;;;;;;47.87;26.70;;;10.40;99.90;;;;;;4995466;28;20486;-81
2023/02/12 00:09:24;;;;;;;51.60;29.00;;;10.30;99.90;;;;;;4995097;28;20976;-80
2023/02/12 00:11:50;;;;;;;55.20;30.93;;;10.30;99.90;;;;;;4991659;28;20538;-82
2023/02/12 00:14:17;;;;;;;48.17;29.17;;;10.20;99.90;;;;;;4996266;28;20509;-81
2023/02/12 00:16:44;;;;;;;52.10;30.27;;;10.20;99.90;;;;;;4993508;28;20493;-82
2023/02/12 00:19:10;;;;;;;44.97;28.30;;;10.10;99.90;;;;;;4996762;28;20446;-81
2023/02/12 00:21:37;;;;;;;49.90;27.80;;;10.20;99.90;;;;;;4993887;28;21034;-80
2023/02/12 00:24:03;;;;;;;46.17;27.30;;;10.20;99.90;;;;;;4995579;28;20896;-82
2023/02/12 00:26:30;;;;;;;47.27;29.00;;;10.10;99.90;;;;;;4994964;28;20499;-81
2023/02/12 00:28:57;;;;;;;44.10;27.30;;;10.10;99.90;;;;;;4995927;28;20455;-81
2023/02/12 00:31:26;;;;;;;45.17;26.87;;;9.90;99.90;;;;;;4995930;28;20489;-82
2023/02/12 00:33:54;;;;;;;47.17;28.27;;;9.70;99.90;;;;;;4994896;28;22058;-81
2023/02/12 00:36:25;;;;;;;39.70;25.27;;;9.70;99.90;;;;;;4994435;28;20454;-81
2023/02/12 00:38:53;;;;;;;45.90;25.47;;;9.60;99.90;;;;;;4994367;28;20454;-81
2023/02/12 00:41:21;;;;;;;43.37;26.97;;;9.50;99.90;;;;;;4995796;28;21032;-80
2023/02/12 00:43:48;;;;;;;43.17;27.07;;;9.50;99.90;;;;;;4994928;28;20879;-80
2023/02/12 00:46:15;;;;;;;40.43;25.50;;;9.50;99.90;;;;;;4996628;28;20463;-82
2023/02/12 00:48:42;;;;;;;42.90;27.93;;;9.70;99.90;;;;;;4995416;28;20609;-81
2023/02/12 00:51:09;;;;;;;45.10;27.33;;;10.10;99.90;;;;;;4996339;28;20516;-81
2023/02/12 00:53:35;;;;;;;41.90;26.17;;;10.00;99.90;;;;;;4996682;28;21600;-79
2023/02/12 00:56:02;;;;;;;38.40;25.37;;;9.90;99.90;;;;;;4995953;28;20451;-79
2023/02/12 00:58:29;;;;;;;38.10;24.87;;;9.70;99.90;;;;;;4993924;28;20489;-80
2023/02/12 01:00:55;;;;;;;45.23;27.47;;;9.80;99.90;;;;;;5004647;28;20449;-82
2023/02/12 01:03:23;;;;;;;49.03;30.83;;;10.10;99.90;;;;;;5004631;28;20457;-79
2023/02/12 01:05:49;;;;;;;46.13;28.13;;;10.20;99.90;;;;;;5006520;28;20969;-81
2023/02/12 01:08:16;;;;;;;50.07;28.00;;;10.30;99.90;;;;;;5005368;28;20465;-81
2023/02/12 01:10:43;;;;;;;41.23;27.50;;;10.30;99.90;;;;;;5003475;28;20454;-82
2023/02/12 01:13:14;;;;;;;44.07;26.70;;;10.10;99.90;;;;;;4999401;28;20454;-82
2023/02/12 01:15:41;;;;;;;39.03;24.83;;;9.90;99.90;;;;;;4996954;28;20466;-81
2023/02/12 01:27:33;;;;;;;47.70;27.07;;;10.30;99.90;;;;;;5005873;28;20471;-87
2023/02/12 01:34:15;;;;;;;39.30;26.00;;;10.20;99.90;;;;;;4998654;28;20418;-88
2023/02/12 01:37:07;;;;;;;46.50;28.40;;;10.00;99.90;;;;;;4983169;28;20495;-84
2023/02/12 01:40:08;;;;;;;;;;;;;;;;;;;;;
2023/02/12 01:43:06;;;;;;;45.30;26.70;;;9.90;99.90;;;;;;4982208;28;21289;-84
2023/02/12 01:46:02;;;;;;;48.93;27.27;;;9.90;99.90;;;;;;4991968;28;20459;-85
2023/02/12 01:48:50;;;;;;;51.47;30.80;;;10.00;99.90;;;;;;4961738;28;20444;-84
2023/02/12 01:52:07;;;;;;;51.30;28.63;;;10.00;99.90;;;;;;4993111;28;20492;-83
2023/02/12 01:55:15;;;;;;;50.80;27.93;;;9.90;99.90;;;;;;4993216;28;20437;-84
2023/02/12 01:57:57;;;;;;;48.27;27.13;;;9.80;99.90;;;;;;4980013;28;20479;-85
2023/02/12 02:00:49;;;;;;;44.33;27.13;;;9.80;99.90;;;;;;4979356;28;21067;-85
2023/02/12 02:03:32;;;;;;;44.23;27.10;;;9.70;99.90;;;;;;4971779;28;20550;-84
2023/02/12 02:06:31;;;;;;;41.13;26.80;;;9.60;99.90;;;;;;4980142;28;20534;-84
2023/02/12 02:09:31;;;;;;;43.00;28.20;;;9.60;99.90;;;;;;4984892;28;20473;-83
2023/02/12 02:15:15;;;;;;;46.93;28.17;;;9.60;99.90;;;;;;4982200;28;20462;-84
2023/02/12 02:18:09;;;;;;;53.00;30.60;;;9.60;99.90;;;;;;4996849;28;20479;-85
2023/02/12 02:21:17;;;;;;;50.67;29.70;;;9.60;99.90;;;;;;4978681;28;20497;-84
2023/02/12 02:24:24;;;;;;;45.33;29.67;;;9.50;99.90;;;;;;4981174;28;20454;-84
2023/02/12 02:27:13;;;;;;;42.83;28.07;;;9.70;99.90;;;;;;4980697;28;20478;-84
2023/02/12 02:30:30;;;;;;;49.20;27.80;;;9.70;99.90;;;;;;4980506;28;20438;-85
2023/02/12 02:33:39;;;;;;;45.33;25.57;;;9.70;99.90;;;;;;4979480;28;20491;-84
2023/02/12 02:36:43;;;;;;;43.70;25.80;;;9.60;99.90;;;;;;4980590;28;20470;-85
2023/02/12 02:40:14;;;;;;;40.53;25.23;;;9.60;99.90;;;;;;4981016;28;21007;-82
2023/02/12 02:43:12;;;;;;;40.13;27.67;;;9.30;99.90;;;;;;4938263;28;20476;-84
2023/02/12 02:46:21;;;;;;;39.27;25.90;;;9.10;99.90;;;;;;4946090;28;20464;-85
2023/02/12 02:49:38;;;;;;;48.63;25.63;;;9.00;99.90;;;;;;4977789;28;20466;-85
2023/02/12 02:52:44;;;;;;;44.00;27.23;;;9.30;99.90;;;;;;4979138;28;20487;-85
2023/02/12 02:55:28;;;;;;;45.43;27.43;;;9.50;99.90;;;;;;4981220;28;20450;-85
2023/02/12 02:58:14;;;;;;;42.00;26.60;;;9.60;99.90;;;;;;4977781;28;20482;-84
2023/02/12 03:01:34;;;;;;;41.07;26.20;;;9.70;99.90;;;;;;4984268;28;20487;-84
2023/02/12 03:04:37;;;;;;;45.63;28.13;;;9.80;99.90;;;;;;4978696;28;20447;-86
2023/02/12 03:08:23;;;;;;;42.23;26.00;;;9.80;99.90;;;;;;4984721;28;20508;-86
2023/02/12 03:11:17;;;;;;;39.57;26.43;;;9.90;99.90;;;;;;4939802;28;20495;-85
2023/02/12 03:14:22;;;;;;;41.37;26.43;;;9.90;99.90;;;;;;4959622;28;20483;-86
2023/02/12 03:17:44;;;;;;;38.77;25.27;;;9.80;99.90;;;;;;4944978;28;20479;-85
2023/02/12 03:20:51;;;;;;;40.40;25.20;;;9.90;99.90;;;;;;4985826;28;20506;-86
2023/02/12 03:24:08;;;;;;;41.40;26.20;;;10.00;99.90;;;;;;5011730;28;20435;-84
2023/02/12 03:27:18;;;;;;;41.30;26.57;;;10.00;99.90;;;;;;4999904;28;20450;-84
2023/02/12 03:30:02;;;;;;;45.23;27.07;;;9.80;99.90;;;;;;4984028;28;20556;-84
2023/02/12 03:32:54;;;;;;;;;;;;;;;;;;;;;
2023/02/12 03:36:09;;;;;;;36.47;23.83;;;9.30;99.90;;;;;;4981327;28;20949;-84
2023/02/12 03:39:05;;;;;;;38.70;25.97;;;9.30;99.90;;;;;;4972532;28;20934;-83
2023/02/12 03:42:19;;;;;;;42.40;25.30;;;9.30;99.90;;;;;;4979519;28;20485;-85
2023/02/12 03:44:55;;;;;;;41.40;27.93;;;9.60;99.90;;;;;;4942373;28;20803;-86
2023/02/12 03:47:55;;;;;;;37.23;26.77;;;9.60;99.90;;;;;;4978585;28;20447;-85
2023/02/12 03:51:08;;;;;;;41.50;26.20;;;9.70;99.90;;;;;;4980214;28;20475;-86
2023/02/12 03:53:54;;;;;;;41.33;27.23;;;9.60;99.90;;;;;;4979836;28;22657;-85
2023/02/12 03:57:03;;;;;;;47.80;28.70;;;9.50;99.90;;;;;;4979924;28;20474;-86
2023/02/12 04:00:15;;;;;;;51.90;30.00;;;9.40;99.90;;;;;;4941208;28;20457;-85
2023/02/12 04:03:02;;;;;;;47.20;28.37;;;9.50;99.90;;;;;;4942212;28;21993;-87
2023/02/12 04:05:46;;;;;;;38.13;26.77;;;9.40;99.90;;;;;;4943215;28;20444;-86
2023/02/12 04:08:37;;;;;;;45.07;27.53;;;9.30;99.90;;;;;;4933884;28;20519;-86
2023/02/12 04:11:47;;;;;;;40.30;26.83;;;9.20;99.90;;;;;;4972124;28;21029;-85
2023/02/12 04:14:57;;;;;;;44.23;27.20;;;9.40;99.90;;;;;;4983437;28;20459;-85
2023/02/12 04:18:04;;;;;;;44.03;27.13;;;9.50;99.90;;;;;;4985416;28;20490;-87
2023/02/12 04:25:13;;;;;;;45.27;26.57;;;9.40;99.90;;;;;;4999578;28;20489;-86
2023/02/12 04:28:36;;;;;;;46.83;30.27;;;9.50;99.90;;;;;;4983677;28;20951;-85
2023/02/12 04:35:56;;;;;;;38.80;27.10;;;9.50;99.90;;;;;;4998093;28;20522;-85
2023/02/12 04:39:15;;;;;;;41.10;27.57;;;9.40;99.90;;;;;;4947660;28;20667;-84
2023/02/12 04:41:48;;;;;;;38.97;25.60;;;9.50;99.90;;;;;;4955440;28;20494;-84
2023/02/12 04:48:21;;;;;;;43.73;26.77;;;9.40;99.90;;;;;;5006290;28;20441;-84
2023/02/12 04:51:55;;;;;;;41.83;26.17;;;9.30;99.90;;;;;;5016074;28;20572;-85
2023/02/12 04:54:51;;;;;;;46.63;25.77;;;9.30;99.90;;;;;;4993143;28;21213;-85
2023/02/12 04:58:02;;;;;;;38.50;25.50;;;9.30;99.90;;;;;;4994043;28;20505;-85
2023/02/12 05:01:12;;;;;;;;;;;;;;;;;;;;;
2023/02/12 05:04:23;;;;;;;42.07;26.20;;;9.10;99.90;;;;;;4990907;28;20445;-85
2023/02/12 05:07:20;;;;;;;38.63;25.70;;;9.40;99.90;;;;;;4985729;28;20467;-86
2023/02/12 05:10:08;;;;;;;38.37;25.43;;;9.40;99.90;;;;;;4982521;28;20462;-86
2023/02/12 05:13:04;;;;;;;37.53;26.37;;;9.50;99.90;;;;;;4980361;28;20468;-83
2023/02/12 05:15:43;;;;;;;39.30;26.23;;;9.40;99.90;;;;;;4976278;28;20459;-85
2023/02/12 05:18:25;;;;;;;45.60;28.87;;;9.40;99.90;;;;;;4990865;28;20873;-86
2023/02/12 05:21:10;;;;;;;42.00;26.00;;;9.40;99.90;;;;;;4968126;28;20582;-85
2023/02/12 05:23:55;;;;;;;34.90;26.00;;;9.30;99.90;;;;;;4973709;28;20520;-83
2023/02/12 06:57:19;;;;;;;39.00;25.20;;;9.20;99.90;;;;;;4957351;28;20442;-86
2023/02/12 07:19:38;;;;;;;33.73;23.93;;;8.90;99.90;;;;;;5005838;28;20589;-84
2023/02/12 07:26:50;;;;;;;35.50;25.53;;;9.30;99.90;;;;;;4906948;28;20446;-84
2023/02/12 10:51:49;;;;;;;44.07;28.27;;;11.00;99.90;;;;;;4940181;28;20521;-83
2023/02/12 10:54:48;;;;;;;44.03;25.70;;;11.00;99.90;;;;;;4926764;28;20515;-86
2023/02/12 10:57:57;;;;;;;43.43;25.80;;;11.10;99.90;;;;;;4966183;28;20545;-85
2023/02/12 11:01:44;;;;;;;;;;;;;;;;;;;;;
2023/02/12 11:05:08;;;;;;;;;;;;;;;;;;;;;
2023/02/12 11:08:23;;;;;;;;;;;;;;;;;;;;;
2023/02/12 11:14:42;;;;;;;39.73;24.83;;;11.70;99.90;;;;;;4958559;28;20494;-84
2023/02/12 11:18:06;;;;;;;38.23;24.17;;;11.70;99.90;;;;;;4919857;29;20542;-84
2023/02/12 11:28:13;;;;;;;41.00;26.87;;;11.60;99.90;;;;;;5208262;22;20595;-85
2023/02/12 11:31:41;;;;;;;40.47;24.53;;;11.50;99.90;;;;;;4874712;29;20551;-85
2023/02/12 11:35:05;;;;;;;36.60;24.70;;;11.30;99.90;;;;;;4874175;29;20460;-84
2023/02/12 11:38:16;;;;;;;40.60;24.00;;;11.00;99.90;;;;;;4885200;29;20439;-86
2023/02/12 11:41:47;;;;;;;40.13;25.40;;;11.50;99.90;;;;;;4849197;29;21148;-85
2023/02/12 11:49:09;;;;;;;;;;;;;;;;;;;;;
2023/02/12 11:55:53;;;;;;;43.00;25.17;;;11.80;99.90;;;;;;4985743;23;20501;-86
2023/02/12 11:59:10;;;;;;;31.80;23.20;;;11.80;99.90;;;;;;4940441;28;20480;-85
2023/02/12 12:02:34;;;;;;;;;;;;;;;;;;;;;
2023/02/12 12:06:19;;;;;;;31.00;19.53;;;12.10;99.90;;;;;;4943201;29;20476;-85
2023/02/12 12:12:58;;;;;;;33.40;20.90;;;11.90;99.80;;;;;;5050033;23;20543;-85
2023/02/12 12:23:16;;;;;;;28.30;18.80;;;12.40;98.90;;;;;;5057912;23;20491;-87
2023/02/12 12:26:14;;;;;;;26.93;18.23;;;12.20;99.00;;;;;;4981873;28;21223;-85
2023/02/12 12:29:27;;;;;;;29.93;19.63;;;12.00;99.60;;;;;;4979101;28;20448;-85
2023/02/12 12:32:28;;;;;;;28.20;18.40;;;12.30;99.10;;;;;;4918278;28;20513;-85
2023/02/12 12:35:38;;;;;;;32.33;19.40;;;12.50;98.80;;;;;;4865184;29;21396;-85
2023/02/12 12:38:51;;;;;;;29.37;18.07;;;12.30;98.80;;;;;;4900063;29;20440;-84
2023/02/12 12:42:27;;;;;;;25.10;16.27;;;12.30;99.30;;;;;;4948103;22;20513;-83
2023/02/12 12:49:20;;;;;;;26.60;16.83;;;13.10;97.60;;;;;;4937315;28;20461;-83
2023/02/12 12:53:02;;;;;;;28.70;16.30;;;13.10;96.80;;;;;;4901746;29;20585;-84
2023/02/12 12:56:37;;;;;;;24.27;14.53;;;12.90;97.00;;;;;;4897492;29;20472;-85
2023/02/12 12:59:50;;;;;;;22.30;14.80;;;12.40;97.40;;;;;;4906160;29;21253;-86
2023/02/12 13:10:46;;;;;;;24.70;15.60;;;12.80;97.60;;;;;;4908274;29;20553;-85
2023/02/12 13:14:05;;;;;;;19.40;13.17;;;13.00;96.90;;;;;;4915694;29;20497;-84
2023/02/12 13:17:01;;;;;;;20.53;13.80;;;12.90;97.20;;;;;;4913872;29;20442;-84
2023/02/12 13:20:17;;;;;;;24.93;14.33;;;12.60;97.60;;;;;;4926478;29;20485;-84
2023/02/12 13:23:38;;;;;;;20.50;13.23;;;12.30;98.10;;;;;;4891373;29;20637;-84
2023/02/12 13:27:17;;;;;;;16.83;12.23;;;12.40;98.40;;;;;;4941742;28;20512;-85
2023/02/12 13:30:16;;;;;;;19.67;12.70;;;12.40;98.70;;;;;;4936498;29;20472;-84
2023/02/12 13:33:46;;;;;;;17.30;13.47;;;13.10;97.50;;;;;;4923938;28;21153;-85
2023/02/12 13:36:39;;;;;;;22.43;14.17;;;13.10;97.10;;;;;;4932399;28;20550;-83
2023/02/12 13:40:15;;;;;;;19.43;13.93;;;13.30;96.70;;;;;;4935405;29;20905;-84
2023/02/12 13:44:08;;;;;;;22.20;13.43;;;13.20;96.60;;;;;;4943480;28;20530;-83
2023/02/12 13:47:34;;;;;;;;;;;;;;;;;;;;;
2023/02/12 13:51:09;;;;;;;18.60;13.10;;;12.80;97.20;;;;;;4947757;28;20493;-84
2023/02/12 13:54:25;;;;;;;19.90;12.53;;;12.60;97.70;;;;;;4920077;29;20444;-85
2023/02/12 13:57:33;;;;;;;20.10;14.17;;;12.70;97.70;;;;;;4956239;28;20536;-83
2023/02/12 14:00:48;;;;;;;17.27;13.57;;;12.70;97.90;;;;;;4948937;28;20519;-83
2023/02/12 14:03:55;;;;;;;22.87;13.80;;;12.70;97.70;;;;;;4941189;29;20457;-84
2023/02/12 14:07:58;;;;;;;;;;;;;;;;;;;;;
2023/02/12 14:10:48;;;;;;;20.43;13.27;;;12.70;97.60;;;;;;4918077;28;20922;-85
2023/02/12 14:14:05;;;;;;;20.27;14.30;;;12.70;98.10;;;;;;4934241;29;20464;-84
2023/02/12 14:17:30;;;;;;;22.10;13.37;;;12.80;97.80;;;;;;4864370;29;20448;-83
2023/02/12 14:20:52;;;;;;;18.67;12.90;;;12.50;98.00;;;;;;4869473;29;20553;-84
2023/02/12 14:27:44;;;;;;;17.33;13.77;;;12.80;98.60;;;;;;4870555;29;20812;-84
2023/02/12 14:30:47;;;;;;;19.20;13.90;;;13.00;98.10;;;;;;4881023;29;20455;-85
2023/02/12 14:33:34;;;;;;;21.17;13.97;;;13.00;97.60;;;;;;4880559;29;20556;-84
2023/02/12 14:54:47;;;;;;;16.23;12.37;;;12.10;99.90;;;;;;5026760;28;20596;-87
2023/02/12 15:01:25;;;;;;;18.43;12.63;;;12.30;99.20;;;;;;5011407;28;20579;-84
2023/02/12 15:09:12;;;;;;;;;;;;;;;;;;;;;
2023/02/12 15:13:01;;;;;;;17.63;12.17;;;12.90;97.70;;;;;;5177629;23;20611;-83
2023/02/12 15:28:06;;;;;;;;;;;;;;;;;;;;;
2023/02/12 15:43:05;;;;;;;15.60;10.33;;;12.60;98.90;;;;;;4858115;29;20479;-85
2023/02/12 15:46:17;;;;;;;13.70;10.53;;;12.80;97.90;;;;;;4879469;29;20503;-86
2023/02/12 15:53:41;;;;;;;14.60;10.90;;;12.20;98.50;;;;;;4975053;28;20534;-86
2023/02/12 16:08:38;;;;;;;14.40;10.87;;;12.50;98.10;;;;;;4717949;30;20581;-85
2023/02/12 16:15:16;;;;;;;14.93;11.60;;;12.40;98.40;;;;;;4727325;30;21023;-86
2023/02/12 16:18:26;;;;;;;17.10;12.27;;;12.40;98.80;;;;;;4754289;29;20579;-83
2023/02/12 16:22:19;;;;;;;;;;;;;;;;;;;;;
2023/02/12 16:29:56;;;;;;;17.83;11.33;;;12.40;98.80;;;;;;4786878;29;20518;-85
2023/02/12 16:37:13;;;;;;;21.27;12.80;;;12.40;98.90;;;;;;4900925;29;20456;-86
2023/02/12 16:49:17;;;;;;;19.03;11.73;;;12.30;99.20;;;;;;4799305;29;20459;-84
2023/02/12 16:55:54;;;;;;;14.67;10.93;;;12.20;99.30;;;;;;4854807;29;20481;-85
2023/02/12 17:08:23;;;;;;;14.37;10.00;;;12.30;98.90;;;;;;1231746;23;20749;-86
2023/02/12 17:27:23;;;;;;;14.20;10.27;;;12.30;99.20;;;;;;4890721;29;20438;-86
2023/02/12 17:31:04;;;;;;;16.23;11.07;;;12.30;99.20;;;;;;4897116;29;20440;-85
2023/02/12 17:34:30;;;;;;;15.37;10.27;;;12.20;99.40;;;;;;4834230;29;20443;-85
2023/02/12 17:37:59;;;;;;;18.57;12.10;;;12.20;99.40;;;;;;4882306;29;20496;-85
2023/02/12 17:44:40;;;;;;;16.13;11.67;;;11.90;99.90;;;;;;4891570;29;20551;-86
2023/02/12 17:47:41;;;;;;;;;;;;;;;;;;;;;
2023/02/12 17:58:16;;;;;;;13.97;10.87;;;12.10;99.60;;;;;;4905859;29;20424;-86
2023/02/12 18:04:35;;;;;;;16.20;11.70;;;12.30;99.50;;;;;;4869563;29;20515;-85
2023/02/12 18:15:51;;;;;;;13.20;10.87;;;12.20;99.40;;;;;;4892665;29;20448;-85
2023/02/12 18:19:33;;;;;;;14.03;9.37;;;12.20;99.30;;;;;;4896102;29;20469;-85
2023/02/12 18:23:02;;;;;;;19.97;14.33;;;12.20;99.30;;;;;;4856088;29;20456;-85
2023/02/12 18:31:43;;;;;;;12.87;10.00;;;12.30;99.50;;;;;;4994956;23;20997;-84
2023/02/12 18:34:35;;;;;;;17.43;11.60;;;12.20;99.40;;;;;;4898628;29;20427;-83
2023/02/12 18:37:51;;;;;;;12.57;10.10;;;12.20;99.60;;;;;;4920536;29;20478;-85
2023/02/12 18:44:21;;;;;;;15.23;11.00;;;12.10;99.60;;;;;;4900155;29;20526;-85
2023/02/12 18:47:14;;;;;;;13.13;10.83;;;12.00;99.80;;;;;;4891445;29;20423;-86
2023/02/12 18:50:23;;;;;;;13.53;9.60;;;12.00;99.90;;;;;;4884219;29;20466;-84
2023/02/12 18:53:04;;;;;;;13.00;9.93;;;12.00;99.90;;;;;;4882322;29;20483;-84
2023/02/12 18:56:08;;;;;;;13.13;9.60;;;12.00;99.90;;;;;;4902007;29;20446;-83
2023/02/12 18:59:01;;;;;;;15.30;11.53;;;12.10;99.80;;;;;;4886704;29;20462;-84
2023/02/12 19:24:27;;;;;;;11.73;8.53;;;11.80;99.90;;;;;;4958880;28;20616;-86
2023/02/12 19:27:39;;;;;;;13.20;9.23;;;11.80;99.90;;;;;;4946479;28;20476;-85
2023/02/12 19:30:50;;;;;;;11.50;8.63;;;11.80;99.90;;;;;;4942256;28;20507;-86
2023/02/12 19:33:31;;;;;;;8.33;7.00;;;11.70;99.90;;;;;;4927558;28;21775;-86
2023/02/12 19:36:55;;;;;;;9.83;7.93;;;11.60;99.90;;;;;;4945766;28;20571;-86
2023/02/12 19:40:44;;;;;;;;;;;;;;;;;;;;;
2023/02/12 19:43:33;;;;;;;14.30;8.03;;;11.60;99.90;;;;;;4956057;28;20448;-86
2023/02/12 19:46:28;;;;;;;7.13;6.50;;;11.70;99.90;;;;;;4943636;28;20440;-86
2023/02/12 19:49:40;;;;;;;;;;;;;;;;;;;;;
2023/02/12 19:52:30;;;;;;;12.30;7.97;;;11.60;99.90;;;;;;4962193;28;20491;-86
2023/02/12 19:58:00;;;;;;;9.93;8.13;;;11.70;99.90;;;;;;4963659;28;20645;-84
2023/02/12 20:00:50;;;;;;;10.57;7.33;;;11.80;99.90;;;;;;4951057;28;20472;-85
2023/02/12 20:03:21;;;;;;;10.80;8.13;;;11.70;99.90;;;;;;4962327;28;20492;-85
2023/02/12 20:06:05;;;;;;;8.97;7.50;;;11.60;99.90;;;;;;4952912;28;20463;-84
2023/02/12 20:08:49;;;;;;;8.23;7.10;;;11.60;99.90;;;;;;4958751;28;20471;-84
2023/02/12 20:11:22;;;;;;;8.83;7.63;;;11.60;99.90;;;;;;4944359;28;20520;-84
2023/02/12 20:17:06;;;;;;;10.00;7.03;;;11.50;99.90;;;;;;4960258;28;20488;-84
2023/02/12 20:19:52;;;;;;;10.33;7.50;;;11.50;99.90;;;;;;4967369;28;20519;-84
2023/02/12 20:22:22;;;;;;;10.60;7.20;;;11.50;99.90;;;;;;4951235;28;20487;-84
2023/02/12 20:24:56;;;;;;;9.60;7.17;;;11.30;99.90;;;;;;4970070;28;20460;-85
2023/02/12 20:27:32;;;;;;;12.33;6.83;;;11.40;99.90;;;;;;4961839;28;20466;-83
2023/02/12 20:30:16;;;;;;;10.27;6.83;;;11.40;99.90;;;;;;4978450;28;20447;-84
2023/02/12 20:35:56;;;;;;;9.60;7.17;;;11.30;99.90;;;;;;4971024;28;20450;-86
2023/02/12 20:38:37;;;;;;;9.47;7.33;;;11.40;99.90;;;;;;5112728;23;20487;-85
2023/02/12 20:41:14;;;;;;;10.43;7.63;;;11.50;99.90;;;;;;4988296;28;20606;-85
2023/02/12 20:43:58;;;;;;;9.47;7.20;;;11.40;99.90;;;;;;4971669;28;20459;-85
2023/02/12 20:46:46;;;;;;;10.97;7.73;;;11.20;99.90;;;;;;4970290;28;20462;-86
2023/02/12 20:49:24;;;;;;;9.37;8.00;;;11.30;99.90;;;;;;4979319;28;20519;-86
2023/02/12 20:52:25;;;;;;;9.20;7.17;;;11.20;99.90;;;;;;4981187;28;20487;-86
2023/02/12 20:55:06;;;;;;;10.33;8.17;;;11.30;99.90;;;;;;4985998;28;20454;-85
2023/02/12 20:58:11;;;;;;;10.53;8.60;;;11.20;99.90;;;;;;4979389;28;20470;-84
2023/02/12 21:00:44;;;;;;;10.30;8.30;;;11.30;99.90;;;;;;4876563;29;20482;-85
2023/02/12 21:03:18;;;;;;;10.53;7.53;;;11.30;99.90;;;;;;4922519;28;20650;-86
2023/02/12 21:06:04;;;;;;;11.23;8.33;;;11.40;99.90;;;;;;4967611;28;20529;-84
2023/02/12 21:08:43;;;;;;;9.03;7.20;;;11.30;99.90;;;;;;4968187;28;20993;-85
2023/02/12 21:11:41;;;;;;;12.40;8.03;;;11.30;99.90;;;;;;4969966;28;20498;-86
2023/02/12 21:14:13;;;;;;;11.10;8.50;;;11.30;99.90;;;;;;4977292;28;20553;-85
2023/02/12 21:16:56;;;;;;;7.90;7.07;;;11.30;99.90;;;;;;4967225;28;20455;-86
2023/02/12 21:19:28;;;;;;;8.50;7.00;;;11.10;99.90;;;;;;4965604;28;21077;-86
2023/02/12 21:22:00;;;;;;;10.37;7.47;;;10.90;99.90;;;;;;4960936;28;20503;-85
2023/02/12 21:32:43;;;;;;;8.60;6.17;;;11.10;99.90;;;;;;5188494;23;20482;-87
2023/02/12 21:35:19;;;;;;;7.67;5.63;;;11.00;99.90;;;;;;4976455;28;20461;-85
2023/02/12 21:38:01;;;;;;;8.50;6.37;;;11.20;99.90;;;;;;4970810;28;20467;-86
2023/02/12 21:40:41;;;;;;;8.67;6.80;;;11.20;99.90;;;;;;4972045;28;20470;-86
2023/02/12 21:43:16;;;;;;;5.40;4.80;;;11.20;99.90;;;;;;4984278;28;20562;-86
2023/02/12 21:45:52;;;;;;;6.60;5.70;;;11.10;99.90;;;;;;4969299;28;20455;-84
2023/02/12 21:51:43;;;;;;;7.30;6.13;;;11.20;99.90;;;;;;4985156;28;20446;-84
2023/02/12 21:54:18;;;;;;;7.93;6.10;;;11.20;99.90;;;;;;4967012;28;20565;-85
2023/02/12 21:56:50;;;;;;;7.60;5.80;;;11.10;99.90;;;;;;4966747;28;20462;-84
2023/02/12 21:59:32;;;;;;;6.80;5.10;;;11.00;99.90;;;;;;4985399;28;20451;-84
2023/02/12 22:02:04;;;;;;;6.87;5.60;;;11.00;99.90;;;;;;4982762;28;20477;-84
2023/02/12 22:04:48;;;;;;;8.00;6.10;;;10.90;99.90;;;;;;4984750;28;20539;-85
2023/02/12 22:07:38;;;;;;;11.00;7.70;;;11.10;99.90;;;;;;4971297;28;20462;-84
2023/02/12 22:10:20;;;;;;;8.43;7.10;;;11.10;99.90;;;;;;4968789;28;20519;-87
2023/02/12 22:12:55;;;;;;;8.60;7.03;;;11.00;99.90;;;;;;4988261;28;20532;-85
2023/02/12 22:15:43;;;;;;;8.83;7.10;;;10.90;99.90;;;;;;4986528;28;20538;-86
2023/02/12 22:18:33;;;;;;;9.90;7.37;;;11.00;99.90;;;;;;4966419;28;20439;-85
2023/02/12 22:21:11;;;;;;;9.17;6.77;;;11.10;99.90;;;;;;4993422;28;20478;-84
2023/02/12 22:27:02;;;;;;;10.63;7.07;;;11.00;99.90;;;;;;4988216;28;20451;-84
2023/02/12 22:30:02;;;;;;;10.93;8.00;;;11.10;99.90;;;;;;4976502;28;21462;-85
2023/02/12 22:32:44;;;;;;;10.17;7.17;;;11.10;99.90;;;;;;4976220;28;20482;-85
2023/02/12 22:35:19;;;;;;;9.80;7.50;;;11.20;99.90;;;;;;4974085;28;20524;-85
2023/02/12 22:37:56;;;;;;;10.30;8.27;;;11.10;99.90;;;;;;4991112;28;20561;-85
2023/02/12 22:40:55;;;;;;;10.90;7.80;;;11.10;99.90;;;;;;4988846;28;20452;-85
2023/02/12 22:43:37;;;;;;;9.60;7.40;;;10.80;99.90;;;;;;4959836;28;21926;-85
2023/02/12 22:46:29;;;;;;;11.63;7.90;;;10.80;99.90;;;;;;4974301;28;20894;-86
2023/02/12 22:49:20;;;;;;;10.00;5.27;;;10.90;99.90;;;;;;4970658;28;20467;-85
2023/02/12 22:52:01;;;;;;;8.93;6.50;;;10.90;99.90;;;;;;4984742;28;20545;-85
2023/02/12 22:54:54;;;;;;;13.30;8.13;;;10.80;99.90;;;;;;4978839;28;20547;-85
2023/02/12 22:57:49;;;;;;;11.30;7.07;;;10.80;99.90;;;;;;4982595;28;20967;-86
2023/02/12 23:00:34;;;;;;;9.93;8.03;;;10.80;99.90;;;;;;4997463;28;20478;-85
2023/02/12 23:03:23;;;;;;;14.73;9.60;;;10.70;99.90;;;;;;4974720;28;20427;-85
2023/02/12 23:05:53;;;;;;;14.10;10.60;;;10.90;99.90;;;;;;4988808;28;20486;-86
2023/02/12 23:08:22;;;;;;;11.93;8.17;;;10.60;99.90;;;;;;5003483;28;20464;-85
2023/02/12 23:10:53;;;;;;;13.83;8.40;;;10.90;99.90;;;;;;4988221;28;20467;-85
2023/02/12 23:13:35;;;;;;;12.90;10.00;;;11.00;99.90;;;;;;4987352;28;20509;-85
2023/02/12 23:16:21;;;;;;;10.50;7.60;;;10.90;99.90;;;;;;5008879;28;20529;-83
2023/02/12 23:19:00;;;;;;;11.60;8.07;;;10.80;99.90;;;;;;5007020;28;20470;-85
2023/02/12 23:21:32;;;;;;;12.03;8.67;;;10.60;99.90;;;;;;4991025;28;20477;-85
2023/02/12 23:24:07;;;;;;;11.03;8.40;;;10.70;99.90;;;;;;4986637;28;20477;-85
2023/02/12 23:27:14;;;;;;;13.00;8.53;;;10.70;99.90;;;;;;4981564;28;20445;-86
2023/02/12 23:30:07;;;;;;;12.67;9.03;;;10.70;99.90;;;;;;4941418;28;20455;-85
2023/02/12 23:33:01;;;;;;;13.03;8.70;;;10.50;99.90;;;;;;4970356;28;20471;-84
2023/02/12 23:36:11;;;;;;;12.47;8.17;;;10.40;99.90;;;;;;4975729;28;20460;-83
2023/02/12 23:39:04;;;;;;;13.03;8.43;;;10.60;99.90;;;;;;4972200;28;20470;-85
2023/02/12 23:42:07;;;;;;;13.07;9.00;;;10.70;99.90;;;;;;4968731;28;20510;-86
2023/02/12 23:45:13;;;;;;;15.50;10.10;;;10.80;99.90;;;;;;4967202;28;20612;-84
2023/02/12 23:48:00;;;;;;;13.00;9.53;;;10.60;99.90;;;;;;4966043;28;20473;-85
2023/02/12 23:50:45;;;;;;;14.40;9.70;;;10.70;99.90;;;;;;4952124;28;20510;-83
2023/02/12 23:53:49;;;;;;;13.40;8.90;;;10.60;99.90;;;;;;4972100;28;20507;-85
2023/02/12 23:56:16;;;;;;;15.70;10.60;;;10.80;99.90;;;;;;4966198;28;20458;-84
2023/02/12 23:59:08;;;;;;;17.50;10.13;;;10.80;99.90;;;;;;4961971;28;20497;-84
